PILOTS ONLINE: 337    ATC ONLINE: 84

KVBG

Vandenberg Air Force Base

Location

City Lompoc
Country  United States
Latitude 34° 44' 14" N
Longitude 120° 35' 2" W
Elevation 369 ft
Type Large Airport

Map

Weather

METAR
2014/09/02 01:08
KVBG 020108Z AUTO 30006KT 10SM OVC007 18/15 A2984 RMK AO2 TSNO $ 
TAF
2014/08/28 22:09
TAF TAF KVBG 2822/3004 31014KT 9999 SCT007 QNH2999INS 
      BECMG 2904/2905 32012KT 4800 BR BKN003 QNH3000INS 
      BECMG 2905/2906 32010KT 1600 BR OVC002 QNH3000INS 
      BECMG 2907/2908 32009KT 0800 FG VV002 QNH3002INS 
      BECMG 2914/2915 33009KT 1600 BR OVC003 QNH2998INS 
      BECMG 2915/2916 33009KT 9999 NSW BKN005 QNH2997INS 
      BECMG 2916/2917 31012KT 9999 FEW005 QNH2997INS 
      BECMG 2920/2921 30012G18KT 9999 SCT010 QNH2997INS 
      BECMG 3002/3003 32012KT 4800 BR BKN002 QNH3002INS TX23/2920Z TN13/2912Z LAST NO 
      AMDS AFT 2900 NEXT 0214

Runways

12/30 15000 ft / 200 ft

Outbound flights

Callsign Flying to Pilot ATD/STD ETA Aircraft

Inbound flights

Callsign Flying from Pilot ATD ETA Aircraft